sensor_id;sensor_type;location;lat;lon;timestamp;P1;durP1;ratioP1;P2;durP2;ratioP2
36211;SDS011;22247;48.586;13.492;2023-08-17T00:01:34;13.38;;;7.93;;
36211;SDS011;22247;48.586;13.492;2023-08-17T00:03:59;10.40;;;7.93;;
36211;SDS011;22247;48.586;13.492;2023-08-17T00:06:24;16.92;;;7.95;;
36211;SDS011;22247;48.586;13.492;2023-08-17T00:08:52;13.05;;;7.78;;
36211;SDS011;22247;48.586;13.492;2023-08-17T00:11:19;13.15;;;8.35;;
36211;SDS011;22247;48.586;13.492;2023-08-17T00:13:44;19.42;;;8.15;;
36211;SDS011;22247;48.586;13.492;2023-08-17T00:16:09;12.45;;;7.63;;
36211;SDS011;22247;48.586;13.492;2023-08-17T00:18:36;10.20;;;6.90;;
36211;SDS011;22247;48.586;13.492;2023-08-17T00:21:01;9.57;;;6.85;;
36211;SDS011;22247;48.586;13.492;2023-08-17T00:23:27;14.65;;;7.47;;
36211;SDS011;22247;48.586;13.492;2023-08-17T00:25:52;14.60;;;8.90;;
36211;SDS011;22247;48.586;13.492;2023-08-17T00:28:17;12.23;;;8.75;;
36211;SDS011;22247;48.586;13.492;2023-08-17T00:30:42;13.52;;;8.23;;
36211;SDS011;22247;48.586;13.492;2023-08-17T00:33:07;12.20;;;8.52;;
36211;SDS011;22247;48.586;13.492;2023-08-17T00:35:33;16.40;;;8.18;;
36211;SDS011;22247;48.586;13.492;2023-08-17T00:37:58;17.05;;;7.68;;
36211;SDS011;22247;48.586;13.492;2023-08-17T00:40:23;10.25;;;8.02;;
36211;SDS011;22247;48.586;13.492;2023-08-17T00:42:48;13.63;;;8.60;;
36211;SDS011;22247;48.586;13.492;2023-08-17T00:45:13;15.93;;;8.57;;
36211;SDS011;22247;48.586;13.492;2023-08-17T00:47:38;11.90;;;8.00;;
36211;SDS011;22247;48.586;13.492;2023-08-17T00:50:04;12.68;;;7.88;;
36211;SDS011;22247;48.586;13.492;2023-08-17T00:52:30;11.10;;;8.50;;
36211;SDS011;22247;48.586;13.492;2023-08-17T00:54:56;10.82;;;8.10;;
36211;SDS011;22247;48.586;13.492;2023-08-17T00:57:23;15.38;;;8.23;;
36211;SDS011;22247;48.586;13.492;2023-08-17T00:59:49;17.40;;;8.90;;
36211;SDS011;22247;48.586;13.492;2023-08-17T01:02:14;11.20;;;7.60;;
36211;SDS011;22247;48.586;13.492;2023-08-17T01:04:40;16.02;;;8.65;;
36211;SDS011;22247;48.586;13.492;2023-08-17T01:07:05;15.07;;;8.10;;
36211;SDS011;22247;48.586;13.492;2023-08-17T01:09:30;22.80;;;8.18;;
36211;SDS011;22247;48.586;13.492;2023-08-17T01:11:59;11.13;;;8.07;;
36211;SDS011;22247;48.586;13.492;2023-08-17T01:14:39;13.30;;;8.38;;
36211;SDS011;22247;48.586;13.492;2023-08-17T01:17:12;10.05;;;8.05;;
36211;SDS011;22247;48.586;13.492;2023-08-17T01:19:39;13.65;;;8.75;;
36211;SDS011;22247;48.586;13.492;2023-08-17T01:22:05;16.20;;;8.52;;
36211;SDS011;22247;48.586;13.492;2023-08-17T01:24:35;17.42;;;7.80;;
36211;SDS011;22247;48.586;13.492;2023-08-17T01:27:00;11.40;;;8.50;;
36211;SDS011;22247;48.586;13.492;2023-08-17T01:29:25;16.25;;;8.40;;
36211;SDS011;22247;48.586;13.492;2023-08-17T01:32:00;11.73;;;8.15;;
36211;SDS011;22247;48.586;13.492;2023-08-17T01:34:36;14.13;;;7.82;;
36211;SDS011;22247;48.586;13.492;2023-08-17T01:37:04;14.40;;;8.10;;
36211;SDS011;22247;48.586;13.492;2023-08-17T01:39:37;15.13;;;8.27;;
36211;SDS011;22247;48.586;13.492;2023-08-17T01:42:03;14.65;;;8.32;;
36211;SDS011;22247;48.586;13.492;2023-08-17T01:44:30;14.52;;;8.60;;
36211;SDS011;22247;48.586;13.492;2023-08-17T01:46:55;14.20;;;8.40;;
36211;SDS011;22247;48.586;13.492;2023-08-17T01:51:46;7.72;;;5.95;;
36211;SDS011;22247;48.586;13.492;2023-08-17T01:54:11;13.45;;;7.80;;
36211;SDS011;22247;48.586;13.492;2023-08-17T01:56:36;15.10;;;7.30;;
36211;SDS011;22247;48.586;13.492;2023-08-17T01:59:00;15.25;;;8.45;;
36211;SDS011;22247;48.586;13.492;2023-08-17T02:01:25;14.02;;;7.82;;
36211;SDS011;22247;48.586;13.492;2023-08-17T02:06:14;13.23;;;8.47;;
36211;SDS011;22247;48.586;13.492;2023-08-17T02:08:39;15.35;;;8.35;;
36211;SDS011;22247;48.586;13.492;2023-08-17T02:11:04;19.08;;;8.07;;
36211;SDS011;22247;48.586;13.492;2023-08-17T02:15:56;13.50;;;8.82;;
36211;SDS011;22247;48.586;13.492;2023-08-17T02:18:20;12.10;;;8.00;;
36211;SDS011;22247;48.586;13.492;2023-08-17T02:23:10;15.07;;;7.82;;
36211;SDS011;22247;48.586;13.492;2023-08-17T02:25:37;11.32;;;8.23;;
36211;SDS011;22247;48.586;13.492;2023-08-17T02:28:03;13.07;;;7.55;;
36211;SDS011;22247;48.586;13.492;2023-08-17T02:32:52;17.47;;;8.93;;
36211;SDS011;22247;48.586;13.492;2023-08-17T02:37:42;13.85;;;8.10;;
36211;SDS011;22247;48.586;13.492;2023-08-17T02:40:07;16.70;;;8.20;;
36211;SDS011;22247;48.586;13.492;2023-08-17T02:42:33;18.02;;;9.13;;
36211;SDS011;22247;48.586;13.492;2023-08-17T02:44:59;14.48;;;7.47;;
36211;SDS011;22247;48.586;13.492;2023-08-17T02:47:25;12.80;;;8.13;;
36211;SDS011;22247;48.586;13.492;2023-08-17T02:49:52;15.82;;;9.25;;
36211;SDS011;22247;48.586;13.492;2023-08-17T02:52:18;16.55;;;8.63;;
36211;SDS011;22247;48.586;13.492;2023-08-17T02:57:08;12.23;;;7.77;;
36211;SDS011;22247;48.586;13.492;2023-08-17T03:01:57;13.32;;;8.32;;
36211;SDS011;22247;48.586;13.492;2023-08-17T03:04:24;15.02;;;10.32;;
36211;SDS011;22247;48.586;13.492;2023-08-17T03:06:49;14.80;;;10.02;;
36211;SDS011;22247;48.586;13.492;2023-08-17T03:11:38;12.00;;;8.57;;
36211;SDS011;22247;48.586;13.492;2023-08-17T03:14:03;14.73;;;8.88;;
36211;SDS011;22247;48.586;13.492;2023-08-17T03:16:30;12.60;;;8.98;;
36211;SDS011;22247;48.586;13.492;2023-08-17T03:21:19;15.32;;;8.98;;
36211;SDS011;22247;48.586;13.492;2023-08-17T03:23:44;16.27;;;8.45;;
36211;SDS011;22247;48.586;13.492;2023-08-17T03:26:08;13.38;;;8.65;;
36211;SDS011;22247;48.586;13.492;2023-08-17T03:28:33;14.93;;;8.93;;
36211;SDS011;22247;48.586;13.492;2023-08-17T03:31:00;13.82;;;8.18;;
36211;SDS011;22247;48.586;13.492;2023-08-17T03:35:49;15.97;;;9.17;;
36211;SDS011;22247;48.586;13.492;2023-08-17T03:38:17;17.73;;;10.05;;
36211;SDS011;22247;48.586;13.492;2023-08-17T03:43:07;12.53;;;8.07;;
36211;SDS011;22247;48.586;13.492;2023-08-17T03:45:32;14.82;;;7.93;;
36211;SDS011;22247;48.586;13.492;2023-08-17T03:47:57;17.10;;;10.02;;
36211;SDS011;22247;48.586;13.492;2023-08-17T03:52:46;11.05;;;8.02;;
36211;SDS011;22247;48.586;13.492;2023-08-17T03:55:10;16.50;;;8.70;;
36211;SDS011;22247;48.586;13.492;2023-08-17T03:57:35;15.18;;;9.77;;
36211;SDS011;22247;48.586;13.492;2023-08-17T04:02:24;19.03;;;10.03;;
36211;SDS011;22247;48.586;13.492;2023-08-17T04:07:20;14.75;;;9.25;;
36211;SDS011;22247;48.586;13.492;2023-08-17T04:09:45;17.63;;;10.82;;
36211;SDS011;22247;48.586;13.492;2023-08-17T04:12:12;16.25;;;10.68;;
36211;SDS011;22247;48.586;13.492;2023-08-17T04:14:40;17.10;;;11.07;;
36211;SDS011;22247;48.586;13.492;2023-08-17T04:17:04;14.27;;;8.13;;
36211;SDS011;22247;48.586;13.492;2023-08-17T04:21:54;13.90;;;9.10;;
36211;SDS011;22247;48.586;13.492;2023-08-17T04:24:22;16.98;;;10.88;;
36211;SDS011;22247;48.586;13.492;2023-08-17T04:29:16;17.60;;;10.13;;
36211;SDS011;22247;48.586;13.492;2023-08-17T04:34:09;16.52;;;10.63;;
36211;SDS011;22247;48.586;13.492;2023-08-17T04:36:36;19.42;;;11.85;;
36211;SDS011;22247;48.586;13.492;2023-08-17T04:41:26;16.73;;;10.20;;
36211;SDS011;22247;48.586;13.492;2023-08-17T04:43:51;15.45;;;10.80;;
36211;SDS011;22247;48.586;13.492;2023-08-17T04:46:17;19.48;;;10.63;;
36211;SDS011;22247;48.586;13.492;2023-08-17T04:48:43;13.65;;;10.02;;
36211;SDS011;22247;48.586;13.492;2023-08-17T04:51:09;16.38;;;10.50;;
36211;SDS011;22247;48.586;13.492;2023-08-17T04:53:34;15.20;;;9.73;;
36211;SDS011;22247;48.586;13.492;2023-08-17T04:55:59;17.40;;;10.48;;
36211;SDS011;22247;48.586;13.492;2023-08-17T04:58:27;17.73;;;11.15;;
36211;SDS011;22247;48.586;13.492;2023-08-17T05:00:52;18.90;;;11.93;;
36211;SDS011;22247;48.586;13.492;2023-08-17T05:03:18;18.33;;;11.48;;
36211;SDS011;22247;48.586;13.492;2023-08-17T05:05:44;17.02;;;11.48;;
36211;SDS011;22247;48.586;13.492;2023-08-17T05:08:09;16.58;;;11.32;;
36211;SDS011;22247;48.586;13.492;2023-08-17T05:10:34;17.00;;;11.45;;
36211;SDS011;22247;48.586;13.492;2023-08-17T05:13:00;17.48;;;10.60;;
36211;SDS011;22247;48.586;13.492;2023-08-17T05:15:28;14.55;;;10.15;;
36211;SDS011;22247;48.586;13.492;2023-08-17T05:17:53;14.07;;;10.23;;
36211;SDS011;22247;48.586;13.492;2023-08-17T05:20:19;14.50;;;9.50;;
36211;SDS011;22247;48.586;13.492;2023-08-17T05:22:44;14.65;;;9.20;;
36211;SDS011;22247;48.586;13.492;2023-08-17T05:25:10;14.20;;;8.95;;
36211;SDS011;22247;48.586;13.492;2023-08-17T05:27:36;13.10;;;8.98;;
36211;SDS011;22247;48.586;13.492;2023-08-17T05:30:01;13.95;;;8.25;;
36211;SDS011;22247;48.586;13.492;2023-08-17T05:32:27;12.57;;;8.63;;
36211;SDS011;22247;48.586;13.492;2023-08-17T05:34:55;14.52;;;8.82;;
36211;SDS011;22247;48.586;13.492;2023-08-17T05:37:20;15.10;;;9.57;;
36211;SDS011;22247;48.586;13.492;2023-08-17T05:39:46;11.27;;;9.57;;
36211;SDS011;22247;48.586;13.492;2023-08-17T05:42:12;18.60;;;10.30;;
36211;SDS011;22247;48.586;13.492;2023-08-17T06:24:10;10.70;;;7.90;;
36211;SDS011;22247;48.586;13.492;2023-08-17T07:14:35;13.00;;;7.70;;
36211;SDS011;22247;48.586;13.492;2023-08-17T07:22:51;11.10;;;7.70;;
36211;SDS011;22247;48.586;13.492;2023-08-17T14:36:06;7.57;;;5.88;;
36211;SDS011;22247;48.586;13.492;2023-08-17T14:38:31;8.95;;;5.43;;
36211;SDS011;22247;48.586;13.492;2023-08-17T14:40:59;9.13;;;5.82;;
36211;SDS011;22247;48.586;13.492;2023-08-17T14:43:25;11.63;;;6.43;;
36211;SDS011;22247;48.586;13.492;2023-08-17T22:25:14;6.70;;;4.75;;
36211;SDS011;22247;48.586;13.492;2023-08-17T22:27:39;7.30;;;4.45;;
36211;SDS011;22247;48.586;13.492;2023-08-17T22:30:04;9.25;;;4.40;;
36211;SDS011;22247;48.586;13.492;2023-08-17T22:32:30;8.10;;;4.90;;
36211;SDS011;22247;48.586;13.492;2023-08-17T22:37:19;7.07;;;5.13;;
36211;SDS011;22247;48.586;13.492;2023-08-17T22:39:47;7.30;;;4.80;;
36211;SDS011;22247;48.586;13.492;2023-08-17T22:42:14;9.57;;;4.78;;
36211;SDS011;22247;48.586;13.492;2023-08-17T22:44:39;7.60;;;5.30;;
36211;SDS011;22247;48.586;13.492;2023-08-17T22:49:29;9.27;;;6.18;;
36211;SDS011;22247;48.586;13.492;2023-08-17T22:51:54;9.27;;;5.95;;
36211;SDS011;22247;48.586;13.492;2023-08-17T22:54:19;7.60;;;5.35;;
36211;SDS011;22247;48.586;13.492;2023-08-17T22:56:44;8.60;;;5.30;;
36211;SDS011;22247;48.586;13.492;2023-08-17T23:01:34;10.85;;;5.60;;
36211;SDS011;22247;48.586;13.492;2023-08-17T23:08:49;10.30;;;5.50;;
